AirNav   Pilot Hours Calculator
 
 1462 users online  

7NJ8 Merck & Co Heliport
Rahway, New Jersey, USA

GOING TO RAHWAY?


FAA INFORMATION EFFECTIVE 07 NOVEMBER 2019

Location

FAA Identifier: 7NJ8
Lat/Long: 40-36-34.0000N 074-15-36.0000W
40-36.566667N 074-15.600000W
40.6094444,-74.2600000
(estimated)
Elevation: 15 ft. / 5 m (estimated)
Variation: 12W (1985)
From city: 2 miles E of RAHWAY, NJ
Time zone: UTC -5 (UTC -4 during Daylight Saving Time)
Zip code: 07065

Heliport Operations

Heliport use: Private use. Permission required prior to landing
Activation date: 07/1989
Control tower: no
ARTCC: NEW YORK CENTER
FSS: MILLVILLE FLIGHT SERVICE STATION
Attendance: UNATNDD
Wind indicator: lighted
Segmented circle: no
Lights: SS-SR

Heliport Communications

WX AWOS-3 at LDJ (0.9 nm NE): 124.025 (908-862-7383)
WX ASOS at EWR (6 nm NE): PHONE 973-621-2892
WX AWOS-3PT at JRB (13 nm NE): 128.175 (212-425-1534)
WX AWOS-3 at MMU (13 nm NW): PHONE 973-290-0135
WX ASOS at CDW (16 nm N): 135.5 (973-575-4417)
WX ASOS at TEB (17 nm NE): 132.025 (201-393-0855)
WX ASOS at SMQ (19 nm W): 120.6 (908-722-2139)

Nearby radio navigation aids

VOR radial/distance  VOR name  Freq  Var
CRIr280/16.7CANARSIE VOR/DME112.3011W
TEBr223/16.9TETERBORO VOR/DME108.4011W
COLr357/18.4COLTS NECK VOR/DME115.4011W
LGAr252/20.6LA GUARDIA VOR/DME113.1012W
SBJr096/22.0SOLBERG VOR/DME112.9010W
JFKr278/22.3KENNEDY VOR/DME115.9012W
RBVr034/26.7ROBBINSVILLE VORTAC113.8010W
BWZr125/28.0BROADWAY VOR/DME114.2011W
SAXr166/30.3SPARTA VORTAC115.7011W
STWr141/36.1STILLWATER VOR/DME109.6011W
ARDr064/36.5YARDLEY VOR/DME108.2010W
GXUr035/39.2MC GUIRE VORTAC110.6012W

 
NDB name  Hdg/Dist  Freq  Var  ID
CHATHAM149/11.025413WCAT -.-. .- -
TORBY218/13.121412WTE - .
LAKEHURST017/34.039611WNEL -. . .-..

Heliport Services

Runway Information

Helipad H1

Dimensions: 50 x 50 ft. / 15 x 15 m
Surface: concrete
Runway edge lights: PERI
Operational restrictions: INGRESS 235 DEG; EGRESS 230 DEG.
Latitude: 40-36.566667N
Longitude: 074-15.600000W
Elevation: 15.0 ft.
Traffic pattern: leftleft

Heliport Ownership and Management from official FAA records

Ownership: Privately-owned
Owner: MERCK & COMPANY INC
100 SAM WEINROTH ROAD
WEST TRENTON, NJ 08628
Phone 609-771-8790
Manager: NADINE FETSKO
100 SAM WEINROTH ROAD
WEST TRENTON, NJ 08628
Phone 609-771-8790

Additional Remarks

A52-H1 30 FT PLINES MARKED 100 FT E OF HELIPAD.
PRIOR PERMISSION REQUIRED; FOR USE CALL 609-771-8790 OPTION 1.
NOISE SENSITIVE AREA.
FOR CD CTC NEW YORK APCH AT 800-645-3206.

Instrument Procedures

There are no published instrument procedures at 7NJ8.

Some nearby airports with instrument procedures:

KLDJ - Linden Airport (1 nm NE)
KEWR - Newark Liberty International Airport (6 nm NE)
KJRB - Downtown Manhattan/Wall Street Heliport (13 nm NE)
KMMU - Morristown Municipal Airport (13 nm NW)
KJRA - West 30th St Heliport (14 nm NE)
6N5 - East 34th Street Heliport (15 nm NE)
KCDW - Essex County Airport (16 nm N)
47N - Central Jersey Regional Airport (16 nm W)
KTEB - Teterboro Airport (17 nm NE)
3N6 - Old Bridge Airport (17 nm S)
 
Loc | Ops | Rwys | IFR | FBO | Links
Com | Nav | Svcs | Stats | Notes
Area around 7NJ8 (Merck & Co Heliport)
 
Road maps at: MapQuest Bing Google
 
Aerial photo
No photo
 
Sectional chart

 
Airport distance calculator
Flying to Merck & Co Heliport? Find the distance to fly.

From to 7NJ8

Sunrise and sunset
Times for 19-Nov-2019
 Local
(UTC-5)
 Zulu
(UTC)
Morning civil twilight06:2011:20
Sunrise06:4911:49
Sunset16:3621:36
Evening civil twilight17:0522:05

Current date and time
Zulu (UTC)  19-Nov-2019 19:37:44
Local (UTC-5)  19-Nov-2019 14:37:44
 
METAR
KLDJ 191855Z AUTO 31007KT 10SM BKN029 09/02 A2978 RMK AO2 T00910023
KEWR 
6nm NE 
191851Z 32006KT 10SM BKN029 10/03 A2977 RMK AO2 SLP082 T01000028 $
KMMU 
13nm NW 
191845Z 32008KT 10SM OVC027 08/03 A2979
KJRB 
13nm NE 
191856Z AUTO VRB03G35KT OVC028 11/04 A2978 RMK AO2 PK WND 27041/1850 SLP085 T01110044 PWINO
KCDW 
16nm N 
191853Z 31005KT 10SM OVC027 08/02 A2979 RMK AO2 SLP093 T00830017
KNYC 
17nm NE 
191851Z AUTO 30006KT 10SM OVC026 09/02 A2980 RMK AO2 SLP082 T00890017 $
KTEB 
18nm NE 
191851Z 31006KT 10SM OVC027 08/03 A2978 RMK AO2 SLP082 T00830028
KSMQ 
19nm W 
ASOS 120.60 908-722-2139
191853Z AUTO 30008KT 10SM OVC031 09/02 A2977 RMK AO2 SLP082 T00890017 $
TAF
KEWR 
6nm NE 
191724Z 1918/2024 29007KT P6SM BKN020 FM200000 33008KT P6SM SCT030 BKN150 FM200800 34008KT P6SM BKN030 BKN100 FM201500 33008G15KT P6SM BKN030 FM201900 32013G19KT P6SM BKN050
KTEB 
18nm NE 
191724Z 1918/2024 30007KT P6SM BKN020 FM200000 34005KT P6SM SCT030 BKN150 FM200800 34005KT P6SM BKN030 BKN100 FM201500 33010G16KT P6SM BKN030 FM201900 32010G16KT P6SM BKN050
NOTAMs
Click for the latest NOTAMs
NOTAMs are issued by the DoD/FAA and will open in a separate window not controlled by AirNav.

 

 
 

Would you like to see your business listed on this page?

 If your business provides an interesting product or service to pilots, flight crews, aircraft, or users of the Merck & Co Heliport, you should consider listing it here.  To start the listing process, click on the button below
 
Add a business
 

Other Pages about Merck & Co Heliport

Update a link
 
Copyright © AirNav, LLC. All rights reserved. Privacy Policy  Contact